createdAt,value
2023-01-10T00:02:18.303Z,14.43
2023-01-10T00:04:47.079Z,14.47
2023-01-10T00:07:15.685Z,14.67
2023-01-10T00:09:44.188Z,13.93
2023-01-10T00:12:30.655Z,14.87
2023-01-10T00:14:59.149Z,11.63
2023-01-10T00:17:29.106Z,12.97
2023-01-10T00:19:57.724Z,11.33
2023-01-10T00:22:27.381Z,11.40
2023-01-10T00:24:55.858Z,13.17
2023-01-10T00:27:24.429Z,13.23
2023-01-10T00:29:58.266Z,12.13
2023-01-10T00:32:28.321Z,12.87
2023-01-10T00:34:57.168Z,12.87
2023-01-10T00:37:25.759Z,13.20
2023-01-10T00:39:54.340Z,11.73
2023-01-10T00:42:40.766Z,11.90
2023-01-10T00:45:13.147Z,12.80
2023-01-10T00:47:43.088Z,12.10
2023-01-10T00:50:12.955Z,12.57
2023-01-10T00:52:41.859Z,12.80
2023-01-10T00:55:11.292Z,12.70
2023-01-10T00:57:39.856Z,13.83
2023-01-10T01:00:10.269Z,13.50
2023-01-10T01:02:39.366Z,13.00
2023-01-10T01:05:10.417Z,13.20
2023-01-10T01:07:38.944Z,13.67
2023-01-10T01:10:25.803Z,12.63
2023-01-10T01:12:54.491Z,12.37
2023-01-10T01:15:23.405Z,12.70
2023-01-10T01:17:51.933Z,11.33
2023-01-10T01:20:22.299Z,12.87
2023-01-10T01:22:50.829Z,12.47
2023-01-10T01:25:19.417Z,12.13
2023-01-10T01:27:47.943Z,12.43
2023-01-10T01:30:17.095Z,12.93
2023-01-10T01:32:45.884Z,10.83
2023-01-10T01:35:16.196Z,11.53
2023-01-10T01:37:46.403Z,11.30
2023-01-10T01:40:16.355Z,10.93
2023-01-10T01:42:46.395Z,11.37
2023-01-10T01:45:41.846Z,9.33
2023-01-10T01:48:31.474Z,11.10
2023-01-10T01:51:07.816Z,10.97
2023-01-10T01:53:43.344Z,10.43
2023-01-10T01:56:17.132Z,9.50
2023-01-10T01:58:50.479Z,9.17
2023-01-10T02:01:19.727Z,9.90
2023-01-10T02:03:55.391Z,9.50
2023-01-10T02:06:26.973Z,9.07
2023-01-10T02:09:04.467Z,9.03
2023-01-10T02:11:33.642Z,7.50
2023-01-10T02:14:06.871Z,9.10
2023-01-10T02:16:35.345Z,9.03
2023-01-10T02:19:05.533Z,7.77
2023-01-10T02:22:18.412Z,8.10
2023-01-10T02:25:38.212Z,7.00
2023-01-10T02:28:40.437Z,6.70
2023-01-10T02:31:44.525Z,5.80
2023-01-10T02:34:21.554Z,6.73
2023-01-10T02:36:56.979Z,6.90
2023-01-10T02:39:35.617Z,6.63
2023-01-10T02:42:08.576Z,6.80
2023-01-10T02:44:45.202Z,7.30
2023-01-10T02:47:15.669Z,7.00
2023-01-10T02:49:47.327Z,6.27
2023-01-10T02:52:20.606Z,7.00
2023-01-10T02:54:50.781Z,6.67
2023-01-10T02:57:38.335Z,5.73
2023-01-10T03:00:20.740Z,5.70
2023-01-10T03:03:01.689Z,4.03
2023-01-10T03:05:49.392Z,5.93
2023-01-10T03:08:29.237Z,5.70
2023-01-10T03:11:01.097Z,5.23
2023-01-10T03:13:36.503Z,5.00
2023-01-10T03:16:08.525Z,6.37
2023-01-10T03:18:43.787Z,5.27
2023-01-10T03:21:15.149Z,4.33
2023-01-10T03:23:44.239Z,5.43
2023-01-10T03:26:14.532Z,6.07
2023-01-10T03:28:48.625Z,6.47
2023-01-10T03:31:22.374Z,6.20
2023-01-10T03:33:51.175Z,7.00
2023-01-10T03:36:31.282Z,5.23
2023-01-10T03:39:06.863Z,5.77
2023-01-10T03:41:40.013Z,6.63
2023-01-10T03:44:35.519Z,5.57
2023-01-10T03:47:09.469Z,6.07
2023-01-10T03:49:41.144Z,7.47
2023-01-10T03:52:14.909Z,5.00
2023-01-10T03:54:44.122Z,6.60
2023-01-10T03:57:18.101Z,5.63
2023-01-10T03:59:47.396Z,6.93
2023-01-10T04:02:16.239Z,6.27
2023-01-10T04:04:44.765Z,5.70
2023-01-10T04:07:14.657Z,6.70
2023-01-10T04:09:43.234Z,6.13
2023-01-10T04:12:12.051Z,5.40
2023-01-10T04:14:40.546Z,5.90
2023-01-10T04:17:09.046Z,5.60
2023-01-10T04:19:37.590Z,5.87
2023-01-10T04:22:07.044Z,6.23
2023-01-10T04:24:37.108Z,6.53
2023-01-10T04:27:05.992Z,5.83
2023-01-10T04:29:34.481Z,6.83
2023-01-10T04:32:05.924Z,6.10
2023-01-10T04:34:34.508Z,6.73
2023-01-10T04:37:02.967Z,5.90
2023-01-10T04:39:31.506Z,6.17
2023-01-10T04:42:01.716Z,6.13
2023-01-10T04:44:30.170Z,6.30
2023-01-10T04:46:58.671Z,5.73
2023-01-10T04:49:27.172Z,6.23
2023-01-10T04:51:55.940Z,6.27
2023-01-10T04:54:24.781Z,6.23
2023-01-10T04:56:54.005Z,5.30
2023-01-10T04:59:24.128Z,5.10
2023-01-10T05:01:53.083Z,5.20
2023-01-10T05:04:21.689Z,5.63
2023-01-10T05:06:50.140Z,5.73
2023-01-10T05:09:18.789Z,5.43
2023-01-10T05:11:47.781Z,6.80
2023-01-10T05:14:16.276Z,5.27
2023-01-10T05:16:46.198Z,5.37
2023-01-10T05:19:15.030Z,4.50
2023-01-10T05:21:43.516Z,5.10
2023-01-10T05:24:12.064Z,5.20
2023-01-10T05:26:40.890Z,4.83
2023-01-10T05:29:11.728Z,5.13
2023-01-10T05:31:40.240Z,4.90
2023-01-10T05:34:13.862Z,4.40
2023-01-10T05:36:42.524Z,5.63
2023-01-10T05:39:11.039Z,4.30
2023-01-10T05:41:39.553Z,5.27
2023-01-10T05:44:08.150Z,4.10
2023-01-10T05:46:37.726Z,4.20
2023-01-10T05:49:06.228Z,3.97
2023-01-10T05:51:36.263Z,4.90
2023-01-10T05:54:04.819Z,5.27
2023-01-10T05:56:33.394Z,4.97
2023-01-10T05:59:09.628Z,5.10
2023-01-10T06:01:42.771Z,4.50
2023-01-10T06:04:11.411Z,7.23
2023-01-10T06:06:41.398Z,6.23
2023-01-10T06:09:10.037Z,4.60
2023-01-10T06:11:39.131Z,5.60
2023-01-10T06:14:08.612Z,7.90
2023-01-10T06:16:37.164Z,4.80
2023-01-10T06:19:05.720Z,4.73
2023-01-10T06:21:34.341Z,6.50
2023-01-10T06:24:04.563Z,4.83
2023-01-10T06:26:33.413Z,4.97
2023-01-10T06:29:01.965Z,6.50
2023-01-10T06:31:30.534Z,4.77
2023-01-10T06:33:59.008Z,5.07
2023-01-10T06:36:28.286Z,5.10
2023-01-10T06:38:56.855Z,6.10
2023-01-10T06:41:26.783Z,6.23
2023-01-10T06:43:55.292Z,5.83
2023-01-10T06:46:24.028Z,6.67
2023-01-10T06:48:52.629Z,6.23
2023-01-10T06:51:21.112Z,6.47
2023-01-10T06:53:49.662Z,6.50
2023-01-10T06:56:18.152Z,6.33
2023-01-10T06:58:50.582Z,6.70
2023-01-10T07:01:21.241Z,5.57
2023-01-10T07:03:50.043Z,6.67
2023-01-10T07:06:18.648Z,5.50
2023-01-10T07:08:48.350Z,7.33
2023-01-10T07:11:18.308Z,5.97
2023-01-10T07:13:48.559Z,6.57
2023-01-10T07:16:18.257Z,6.47
2023-01-10T07:18:47.003Z,6.00
2023-01-10T07:21:16.889Z,5.50
2023-01-10T07:23:45.638Z,7.03
2023-01-10T07:26:17.833Z,7.13
2023-01-10T07:28:52.030Z,7.03
2023-01-10T07:31:23.962Z,6.03
2023-01-10T07:33:53.656Z,5.67
2023-01-10T07:36:23.103Z,5.80
2023-01-10T07:38:51.938Z,5.30
2023-01-10T07:41:20.499Z,5.53
2023-01-10T07:43:51.016Z,5.17
2023-01-10T07:46:20.185Z,5.97
2023-01-10T07:48:49.360Z,5.87
2023-01-10T07:51:17.988Z,6.33
2023-01-10T07:53:46.553Z,8.60
2023-01-10T07:56:15.173Z,7.23
2023-01-10T07:58:43.801Z,6.00
2023-01-10T08:01:13.865Z,6.80
2023-01-10T08:03:42.963Z,5.73
2023-01-10T08:06:12.261Z,5.93
2023-01-10T08:08:40.983Z,5.80
2023-01-10T08:11:10.108Z,5.10
2023-01-10T08:13:39.849Z,6.00
2023-01-10T08:16:09.854Z,5.90
2023-01-10T08:18:42.559Z,6.20
2023-01-10T08:21:11.506Z,5.93
2023-01-10T08:23:40.399Z,6.50
2023-01-10T08:26:09.141Z,7.53
2023-01-10T08:28:37.718Z,7.07
2023-01-10T08:31:10.222Z,6.90
2023-01-10T08:33:41.598Z,6.83
2023-01-10T08:36:17.918Z,6.77
2023-01-10T08:38:48.060Z,5.50
2023-01-10T08:41:16.670Z,6.90
2023-01-10T08:43:45.168Z,6.23
2023-01-10T08:46:14.323Z,7.50
2023-01-10T08:48:44.392Z,6.70
2023-01-10T08:51:13.194Z,6.27
2023-01-10T08:53:42.031Z,8.03
2023-01-10T08:56:11.542Z,7.10
2023-01-10T08:58:40.186Z,8.40
2023-01-10T09:01:12.068Z,7.10
2023-01-10T09:03:41.159Z,7.93
2023-01-10T09:06:11.462Z,8.33
2023-01-10T09:08:40.133Z,8.83
2023-01-10T09:11:09.117Z,8.60
2023-01-10T09:13:38.140Z,9.13
2023-01-10T09:16:07.107Z,8.17
2023-01-10T09:18:35.727Z,9.00
2023-01-10T09:21:04.389Z,10.50
2023-01-10T09:23:36.142Z,9.97
2023-01-10T09:26:05.828Z,9.67
2023-01-10T09:28:34.599Z,10.10
2023-01-10T09:31:04.647Z,10.43
2023-01-10T09:33:45.694Z,12.17
2023-01-10T09:36:15.933Z,11.80
2023-01-10T09:38:46.674Z,11.30
2023-01-10T09:41:41.018Z,11.37
2023-01-10T09:44:20.439Z,9.90
2023-01-10T09:46:55.804Z,9.90
2023-01-10T09:49:35.581Z,9.97
2023-01-10T09:52:08.936Z,8.73
2023-01-10T09:54:43.175Z,9.27
2023-01-10T09:57:18.317Z,9.47
2023-01-10T09:59:51.058Z,9.27
2023-01-10T10:02:28.751Z,9.07
2023-01-10T10:05:12.724Z,8.77
2023-01-10T10:07:41.837Z,10.37
2023-01-10T10:10:20.048Z,10.27
2023-01-10T10:12:55.969Z,9.23
2023-01-10T10:15:34.153Z,9.40
2023-01-10T10:18:16.797Z,8.57
2023-01-10T10:20:55.554Z,8.60
2023-01-10T10:23:43.985Z,7.53
2023-01-10T10:26:21.758Z,8.23
2023-01-10T10:29:29.127Z,8.20
2023-01-10T10:32:29.539Z,8.23
2023-01-10T10:35:02.541Z,7.77
2023-01-10T10:37:35.128Z,8.47
2023-01-10T10:40:07.913Z,8.03
2023-01-10T10:42:41.392Z,8.87
2023-01-10T10:45:20.751Z,7.67
2023-01-10T10:47:57.333Z,7.90
2023-01-10T10:50:32.724Z,7.83
2023-01-10T10:53:03.001Z,8.37
2023-01-10T10:55:35.883Z,8.13
2023-01-10T10:58:07.445Z,8.50
2023-01-10T11:00:36.675Z,7.97
2023-01-10T11:03:24.525Z,8.43
2023-01-10T11:05:54.084Z,7.47
2023-01-10T11:08:24.028Z,6.97
2023-01-10T11:10:56.576Z,6.90
2023-01-10T11:13:40.808Z,7.07
2023-01-10T11:16:10.175Z,6.87
2023-01-10T11:18:41.741Z,6.37
2023-01-10T11:21:13.909Z,6.90
2023-01-10T11:23:51.628Z,7.10
2023-01-10T11:26:28.961Z,6.63
2023-01-10T11:29:08.882Z,5.43
2023-01-10T11:31:38.689Z,5.80
2023-01-10T11:34:20.778Z,5.80
2023-01-10T11:36:58.499Z,5.00
2023-01-10T11:39:28.464Z,5.47
2023-01-10T11:41:59.619Z,4.80
2023-01-10T11:44:31.344Z,5.37
2023-01-10T11:47:05.218Z,6.00
2023-01-10T11:49:38.962Z,6.00
2023-01-10T11:52:17.808Z,5.03
2023-01-10T11:54:46.822Z,6.17
2023-01-10T11:57:20.094Z,4.53
2023-01-10T11:59:55.091Z,5.37
2023-01-10T12:02:27.626Z,5.87
2023-01-10T12:05:00.477Z,5.20
2023-01-10T12:07:29.243Z,7.50
2023-01-10T12:09:59.166Z,5.20
2023-01-10T12:12:29.632Z,4.90
2023-01-10T12:15:01.769Z,4.93
2023-01-10T12:17:32.906Z,5.00
2023-01-10T12:20:03.608Z,5.93
2023-01-10T12:22:37.569Z,4.10
2023-01-10T12:25:18.623Z,4.43
2023-01-10T12:27:50.531Z,9.47
2023-01-10T12:30:30.275Z,4.87
2023-01-10T12:33:02.256Z,8.70
2023-01-10T12:35:40.961Z,7.80
2023-01-10T12:38:22.565Z,9.53
2023-01-10T12:41:00.102Z,5.57
2023-01-10T12:43:53.303Z,4.10
2023-01-10T12:47:00.107Z,5.43
2023-01-10T12:49:24.477Z,5.43
2023-01-10T12:51:56.825Z,5.00
2023-01-10T12:54:28.332Z,4.63
2023-01-10T12:56:59.797Z,4.70
2023-01-10T12:59:38.183Z,5.00
2023-01-10T13:02:16.367Z,5.00
2023-01-10T13:04:50.036Z,4.60
2023-01-10T13:07:19.881Z,4.23
2023-01-10T13:09:50.240Z,5.30
2023-01-10T13:12:34.316Z,5.17
2023-01-10T13:15:12.445Z,4.40
2023-01-10T13:17:48.599Z,4.73
2023-01-10T13:20:29.344Z,4.00
2023-01-10T13:22:59.939Z,4.37
2023-01-10T13:25:30.698Z,3.87
2023-01-10T13:28:04.053Z,4.47
2023-01-10T13:30:35.305Z,5.03
2023-01-10T13:33:09.436Z,4.97
2023-01-10T13:35:44.271Z,5.07
2023-01-10T13:38:23.554Z,4.77
2023-01-10T13:41:01.484Z,4.77
2023-01-10T13:43:39.727Z,4.67
2023-01-10T13:46:43.317Z,3.90
2023-01-10T13:49:45.151Z,4.77
2023-01-10T13:52:39.187Z,4.23
2023-01-10T13:55:24.807Z,4.40
2023-01-10T13:57:56.412Z,4.10
2023-01-10T14:00:44.839Z,4.53
2023-01-10T14:03:41.844Z,5.30
2023-01-10T14:06:19.886Z,5.73
2023-01-10T14:08:57.650Z,5.23
2023-01-10T14:11:30.874Z,5.33
2023-01-10T14:14:03.405Z,4.30
2023-01-10T14:16:37.850Z,4.57
2023-01-10T14:19:09.329Z,4.40
2023-01-10T14:21:45.387Z,3.33
2023-01-10T14:24:27.363Z,4.47
2023-01-10T14:26:57.836Z,4.63
2023-01-10T14:29:32.023Z,3.60
2023-01-10T14:32:02.385Z,3.30
2023-01-10T14:34:35.984Z,3.40
2023-01-10T14:37:11.202Z,3.90
2023-01-10T14:39:44.241Z,4.77
2023-01-10T14:42:18.453Z,3.73
2023-01-10T14:44:53.025Z,4.00
2023-01-10T14:47:30.877Z,4.00
2023-01-10T14:50:01.282Z,4.13
2023-01-10T14:52:30.378Z,3.67
2023-01-10T14:55:11.920Z,3.97
2023-01-10T14:57:41.362Z,4.10
2023-01-10T15:00:17.742Z,4.03
2023-01-10T15:02:49.144Z,3.63
2023-01-10T15:05:21.008Z,3.87
2023-01-10T15:07:50.360Z,3.23
2023-01-10T15:10:26.847Z,3.70
2023-01-10T15:12:58.702Z,3.20
2023-01-10T15:15:34.008Z,3.50
2023-01-10T15:18:07.904Z,3.40
2023-01-10T15:20:43.314Z,3.10
2023-01-10T15:23:23.566Z,3.30
2023-01-10T15:26:01.169Z,3.17
2023-01-10T15:28:31.476Z,4.43
2023-01-10T15:31:01.237Z,3.80
2023-01-10T15:33:33.161Z,3.63
2023-01-10T15:36:07.429Z,3.73
2023-01-10T15:38:40.176Z,3.20
2023-01-10T15:41:15.827Z,4.60
2023-01-10T15:43:45.170Z,3.37
2023-01-10T15:46:21.949Z,4.50
2023-01-10T15:48:59.674Z,4.13
2023-01-10T15:51:31.199Z,4.50
2023-01-10T15:54:04.975Z,4.67
2023-01-10T15:56:42.419Z,4.40
2023-01-10T15:59:24.338Z,4.10
2023-01-10T16:01:57.705Z,4.13
2023-01-10T16:04:26.974Z,4.30
2023-01-10T16:07:06.561Z,3.80
2023-01-10T16:09:36.556Z,3.90
2023-01-10T16:12:24.563Z,3.80
2023-01-10T16:14:53.275Z,4.20
2023-01-10T16:17:22.530Z,4.13
2023-01-10T16:19:51.748Z,3.77
2023-01-10T16:22:20.945Z,3.30
2023-01-10T16:24:54.943Z,4.03
2023-01-10T16:27:25.614Z,4.00
2023-01-10T16:29:54.629Z,4.23
2023-01-10T16:32:23.359Z,3.70
2023-01-10T16:34:52.276Z,17.97
2023-01-10T16:37:21.333Z,35.90
2023-01-10T16:39:53.134Z,5.50
2023-01-10T16:42:39.043Z,3.57
2023-01-10T16:45:10.394Z,4.50
2023-01-10T16:47:40.295Z,4.73
2023-01-10T16:50:10.767Z,7.03
2023-01-10T16:52:39.809Z,5.63
2023-01-10T16:55:17.025Z,6.00
2023-01-10T16:57:47.033Z,3.93
2023-01-10T17:00:22.456Z,5.07
2023-01-10T17:02:51.215Z,4.00
2023-01-10T17:05:20.171Z,4.53
2023-01-10T17:07:48.842Z,3.60
2023-01-10T17:10:18.532Z,4.70
2023-01-10T17:12:47.623Z,4.77
2023-01-10T17:15:21.573Z,6.90
2023-01-10T17:17:50.463Z,7.07
2023-01-10T17:20:20.018Z,9.60
2023-01-10T17:22:49.429Z,6.97
2023-01-10T17:25:19.764Z,4.67
2023-01-10T17:27:48.781Z,3.70
2023-01-10T17:30:19.928Z,4.33
2023-01-10T17:32:48.947Z,4.40
2023-01-10T17:35:18.529Z,4.73
2023-01-10T17:37:50.862Z,4.03
2023-01-10T17:40:22.204Z,4.00
2023-01-10T17:42:52.826Z,4.53
2023-01-10T17:45:23.617Z,4.13
2023-01-10T17:47:53.411Z,4.67
2023-01-10T17:50:24.642Z,4.07
2023-01-10T17:52:53.442Z,4.20
2023-01-10T17:55:22.537Z,5.37
2023-01-10T17:57:51.603Z,4.57
2023-01-10T18:00:20.890Z,4.33
2023-01-10T18:02:51.501Z,5.50
2023-01-10T18:05:21.346Z,5.20
2023-01-10T18:07:50.023Z,3.87
2023-01-10T18:10:20.314Z,3.80
2023-01-10T18:12:49.527Z,3.93
2023-01-10T18:15:18.920Z,3.57
2023-01-10T18:17:48.167Z,4.57
2023-01-10T18:20:22.474Z,4.10
2023-01-10T18:23:08.196Z,3.30
2023-01-10T18:25:37.225Z,4.07
2023-01-10T18:28:06.656Z,3.60
2023-01-10T18:30:35.649Z,3.77
2023-01-10T18:33:06.802Z,4.20
2023-01-10T18:35:40.312Z,4.20
2023-01-10T18:38:09.688Z,3.80
2023-01-10T18:40:42.207Z,4.37
2023-01-10T18:43:14.538Z,4.13
2023-01-10T18:45:47.561Z,4.30
2023-01-10T18:48:18.447Z,4.87
2023-01-10T18:50:50.778Z,5.70
2023-01-10T18:53:20.785Z,8.20
2023-01-10T18:55:55.423Z,15.33
2023-01-10T18:58:27.593Z,16.10
2023-01-10T19:00:59.427Z,8.60
2023-01-10T19:03:28.395Z,7.93
2023-01-10T19:06:01.550Z,12.63
2023-01-10T19:08:30.622Z,6.77
2023-01-10T19:11:12.810Z,10.97
2023-01-10T19:13:42.665Z,9.90
2023-01-10T19:16:16.891Z,7.63
2023-01-10T19:18:50.534Z,9.13
2023-01-10T19:21:23.231Z,6.47
2023-01-10T19:23:55.290Z,4.53
2023-01-10T19:26:27.795Z,5.13
2023-01-10T19:28:56.915Z,6.60
2023-01-10T19:31:28.986Z,5.97
2023-01-10T19:34:02.245Z,4.40
2023-01-10T19:36:36.584Z,5.20
2023-01-10T19:39:07.545Z,5.77
2023-01-10T19:41:37.410Z,8.80
2023-01-10T19:44:08.937Z,6.10
2023-01-10T19:46:39.227Z,5.63
2023-01-10T19:49:09.466Z,4.87
2023-01-10T19:51:41.263Z,10.83
2023-01-10T19:54:11.124Z,7.20
2023-01-10T19:56:40.910Z,8.73
2023-01-10T19:59:14.510Z,9.70
2023-01-10T20:01:43.379Z,8.83
2023-01-10T20:04:12.717Z,6.30
2023-01-10T20:06:43.773Z,4.77
2023-01-10T20:09:14.059Z,4.10
2023-01-10T20:11:46.377Z,3.00
2023-01-10T20:14:18.781Z,9.07
2023-01-10T20:16:49.112Z,7.93
2023-01-10T20:19:18.562Z,5.70
2023-01-10T20:21:49.651Z,4.47
2023-01-10T20:24:21.371Z,5.30
2023-01-10T20:27:00.095Z,4.23
2023-01-10T20:29:29.085Z,3.57
2023-01-10T20:32:01.206Z,3.37
2023-01-10T20:34:30.509Z,3.23
2023-01-10T20:37:04.883Z,3.40
2023-01-10T20:39:33.900Z,3.43
2023-01-10T20:42:04.895Z,3.40
2023-01-10T20:44:33.966Z,3.50
2023-01-10T20:47:02.829Z,4.20
2023-01-10T20:49:32.248Z,4.27
2023-01-10T20:52:02.640Z,5.07
2023-01-10T20:54:31.588Z,5.03
2023-01-10T20:57:00.746Z,6.97
2023-01-10T20:59:31.626Z,4.73
2023-01-10T21:02:00.959Z,10.00
2023-01-10T21:04:30.764Z,11.60
2023-01-10T21:06:59.748Z,9.27
2023-01-10T21:09:30.149Z,6.30
2023-01-10T21:12:10.590Z,4.30
2023-01-10T21:14:48.054Z,3.77
2023-01-10T21:17:16.778Z,6.13
2023-01-10T21:19:45.497Z,5.47
2023-01-10T21:22:15.316Z,4.13
2023-01-10T21:24:45.443Z,4.20
2023-01-10T21:27:14.251Z,3.67
2023-01-10T21:29:43.330Z,4.40
2023-01-10T21:32:15.497Z,4.00
2023-01-10T21:34:44.230Z,3.23
2023-01-10T21:37:13.016Z,3.07
2023-01-10T21:39:42.175Z,3.00
2023-01-10T21:42:30.589Z,2.90
2023-01-10T21:44:59.619Z,3.37
2023-01-10T21:47:28.721Z,3.37
2023-01-10T21:49:57.717Z,3.03
2023-01-10T21:52:26.813Z,3.67
2023-01-10T21:54:55.610Z,3.23
2023-01-10T21:57:26.221Z,2.70
2023-01-10T21:59:55.513Z,3.17
2023-01-10T22:02:27.515Z,3.40
2023-01-10T22:04:57.734Z,2.37
2023-01-10T22:07:29.506Z,2.60
2023-01-10T22:09:58.310Z,2.40
2023-01-10T22:12:32.265Z,2.77
2023-01-10T22:15:01.038Z,2.77
2023-01-10T22:17:29.799Z,3.00
2023-01-10T22:19:58.668Z,2.90
2023-01-10T22:22:27.858Z,2.63
2023-01-10T22:24:56.656Z,2.03
2023-01-10T22:27:25.773Z,2.80
2023-01-10T22:29:55.954Z,7.27
2023-01-10T22:32:24.747Z,3.80
2023-01-10T22:34:55.053Z,8.07
2023-01-10T22:37:23.771Z,6.93
2023-01-10T22:39:52.748Z,5.63
2023-01-10T22:42:21.494Z,4.00
2023-01-10T22:44:50.171Z,4.47
2023-01-10T22:47:20.315Z,3.10
2023-01-10T22:49:51.565Z,4.33
2023-01-10T22:52:20.530Z,7.40
2023-01-10T22:54:49.192Z,5.57
2023-01-10T22:57:18.012Z,7.33
2023-01-10T22:59:46.709Z,7.33
2023-01-10T23:02:15.532Z,8.53
2023-01-10T23:04:46.584Z,7.80
2023-01-10T23:07:15.506Z,4.20
2023-01-10T23:09:44.174Z,5.30
2023-01-10T23:12:13.072Z,5.13
2023-01-10T23:14:43.581Z,9.20
2023-01-10T23:17:12.696Z,6.77
2023-01-10T23:19:41.301Z,10.80
2023-01-10T23:22:11.662Z,5.03
2023-01-10T23:24:40.390Z,4.60
2023-01-10T23:27:09.235Z,4.73
2023-01-10T23:29:37.910Z,4.67
2023-01-10T23:32:06.906Z,4.93
2023-01-10T23:34:36.037Z,4.37
2023-01-10T23:37:04.684Z,3.80
2023-01-10T23:39:34.717Z,2.13
2023-01-10T23:42:03.630Z,1.93
2023-01-10T23:44:33.735Z,2.17
2023-01-10T23:47:02.392Z,1.80
2023-01-10T23:49:31.089Z,1.80
2023-01-10T23:52:01.873Z,1.90
2023-01-10T23:54:31.075Z,2.10
2023-01-10T23:57:01.114Z,2.30
2023-01-10T23:59:29.702Z,2.67
